createdAt,value
2017-05-23T00:00:43.766Z,0
2017-05-23T00:01:45.143Z,0
2017-05-23T00:02:46.509Z,0
2017-05-23T00:03:47.881Z,0
2017-05-23T00:04:49.261Z,0
2017-05-23T00:05:50.618Z,0
2017-05-23T00:06:52.665Z,0
2017-05-23T00:07:54.030Z,0
2017-05-23T00:08:55.390Z,0
2017-05-23T00:09:56.766Z,0
2017-05-23T00:10:58.133Z,0
2017-05-23T00:11:59.545Z,0
2017-05-23T00:13:00.934Z,0
2017-05-23T00:14:02.292Z,0
2017-05-23T00:15:03.673Z,0
2017-05-23T00:16:05.042Z,0
2017-05-23T00:17:06.414Z,0
2017-05-23T00:18:07.780Z,0
2017-05-23T00:19:09.159Z,0
2017-05-23T00:20:10.532Z,0
2017-05-23T00:21:12.668Z,0
2017-05-23T00:22:14.030Z,0
2017-05-23T00:23:15.399Z,0
2017-05-23T00:24:16.761Z,0
2017-05-23T00:25:18.141Z,0
2017-05-23T00:26:19.529Z,0
2017-05-23T00:27:20.971Z,0
2017-05-23T00:28:22.340Z,0
2017-05-23T00:29:23.699Z,0
2017-05-23T00:30:25.070Z,0
2017-05-23T00:31:26.433Z,0
2017-05-23T00:32:27.796Z,0
2017-05-23T00:33:29.162Z,0
2017-05-23T00:34:30.530Z,0
2017-05-23T00:35:31.899Z,0
2017-05-23T00:36:33.261Z,0
2017-05-23T00:37:34.700Z,0
2017-05-23T00:38:36.071Z,0
2017-05-23T00:39:37.433Z,0
2017-05-23T00:40:38.804Z,0
2017-05-23T00:41:40.166Z,0
2017-05-23T00:42:41.548Z,0
2017-05-23T00:43:42.916Z,0
2017-05-23T00:44:44.283Z,0
2017-05-23T00:45:45.691Z,0
2017-05-23T00:46:47.122Z,0
2017-05-23T00:47:48.501Z,0
2017-05-23T00:48:49.870Z,0
2017-05-23T00:49:51.237Z,0
2017-05-23T00:50:52.603Z,0
2017-05-23T00:51:53.976Z,0
2017-05-23T00:52:55.361Z,0
2017-05-23T00:53:56.727Z,0
2017-05-23T00:54:58.085Z,0
2017-05-23T00:55:59.449Z,0
2017-05-23T00:57:00.831Z,0
2017-05-23T00:58:02.197Z,0
2017-05-23T00:59:03.550Z,0
2017-05-23T01:00:04.933Z,0
2017-05-23T01:01:06.299Z,0
2017-05-23T01:02:07.675Z,0
2017-05-23T01:03:09.084Z,0
2017-05-23T01:04:10.518Z,0
2017-05-23T01:05:11.897Z,0
2017-05-23T01:06:13.269Z,0
2017-05-23T01:07:14.633Z,0
2017-05-23T01:08:16.000Z,0
2017-05-23T01:09:17.396Z,0
2017-05-23T01:10:18.784Z,0
2017-05-23T01:11:20.163Z,0
2017-05-23T01:12:21.534Z,0
2017-05-23T01:13:22.898Z,0
2017-05-23T01:14:24.272Z,0
2017-05-23T01:15:25.636Z,0
2017-05-23T01:16:27.041Z,0
2017-05-23T01:17:28.409Z,0
2017-05-23T01:18:29.780Z,0
2017-05-23T01:19:31.143Z,0
2017-05-23T01:20:32.512Z,0
2017-05-23T01:21:33.911Z,0
2017-05-23T01:22:35.297Z,0
2017-05-23T01:23:36.673Z,0
2017-05-23T01:24:38.054Z,0
2017-05-23T01:25:39.505Z,0
2017-05-23T01:26:40.896Z,0
2017-05-23T01:27:42.264Z,0
2017-05-23T01:28:43.661Z,0
2017-05-23T01:29:45.048Z,0
2017-05-23T01:30:46.449Z,0
2017-05-23T01:31:47.838Z,0
2017-05-23T01:32:49.201Z,0
2017-05-23T01:33:50.567Z,0
2017-05-23T01:34:51.933Z,0
2017-05-23T01:35:53.297Z,0
2017-05-23T01:36:54.682Z,0
2017-05-23T01:37:56.052Z,0
2017-05-23T01:38:57.423Z,0
2017-05-23T01:39:58.788Z,0
2017-05-23T01:41:00.148Z,0
2017-05-23T01:42:01.565Z,0
2017-05-23T01:43:02.943Z,0
2017-05-23T01:44:04.317Z,0
2017-05-23T01:45:05.686Z,0
2017-05-23T01:46:07.141Z,0
2017-05-23T01:47:08.519Z,0
2017-05-23T01:48:09.887Z,0
2017-05-23T01:49:11.257Z,0
2017-05-23T01:50:12.652Z,0
2017-05-23T01:51:14.014Z,0
2017-05-23T01:52:15.383Z,0
2017-05-23T01:53:16.743Z,0
2017-05-23T01:54:18.139Z,0
2017-05-23T01:55:19.503Z,0
2017-05-23T01:56:20.866Z,0
2017-05-23T01:57:22.273Z,0
2017-05-23T01:58:23.630Z,0
2017-05-23T01:59:25.058Z,0
2017-05-23T02:00:26.427Z,0
2017-05-23T02:01:27.811Z,0
2017-05-23T02:02:29.170Z,0
2017-05-23T02:03:30.542Z,0
2017-05-23T02:04:31.912Z,0
2017-05-23T02:05:33.278Z,0
2017-05-23T02:06:34.646Z,0
2017-05-23T02:07:36.016Z,0
2017-05-23T02:08:37.394Z,0
2017-05-23T02:09:38.751Z,0
2017-05-23T02:10:40.184Z,0
2017-05-23T02:11:41.559Z,0
2017-05-23T02:12:42.922Z,0
2017-05-23T02:13:44.357Z,0
2017-05-23T02:14:45.739Z,0
2017-05-23T02:15:47.122Z,0
2017-05-23T02:16:48.496Z,0
2017-05-23T02:17:49.858Z,0
2017-05-23T02:18:51.218Z,0
2017-05-23T02:19:52.644Z,0
2017-05-23T02:20:54.023Z,0
2017-05-23T02:21:55.389Z,0
2017-05-23T02:22:56.752Z,0
2017-05-23T02:23:58.119Z,0
2017-05-23T02:24:59.478Z,0
2017-05-23T02:26:00.843Z,0
2017-05-23T02:27:02.203Z,0
2017-05-23T02:28:03.567Z,0
2017-05-23T02:29:04.939Z,0
2017-05-23T02:30:06.347Z,0
2017-05-23T02:31:07.732Z,0
2017-05-23T02:32:09.095Z,0
2017-05-23T02:33:10.458Z,0
2017-05-23T02:34:11.822Z,0
2017-05-23T02:35:13.188Z,0
2017-05-23T02:36:14.571Z,0
2017-05-23T02:37:15.929Z,0
2017-05-23T02:38:17.303Z,0
2017-05-23T02:39:18.663Z,0
2017-05-23T02:40:20.032Z,0
2017-05-23T02:41:21.456Z,0
2017-05-23T02:42:22.821Z,0
2017-05-23T02:43:24.192Z,0
2017-05-23T02:44:25.564Z,0
2017-05-23T02:45:26.927Z,0
2017-05-23T02:46:28.290Z,0
2017-05-23T02:47:29.653Z,0
2017-05-23T02:48:31.017Z,0
2017-05-23T02:49:32.380Z,0
2017-05-23T02:50:33.783Z,0
2017-05-23T02:51:35.150Z,0
2017-05-23T02:52:36.513Z,0
2017-05-23T02:53:37.876Z,0
2017-05-23T02:54:39.245Z,0
2017-05-23T02:55:40.627Z,0
2017-05-23T02:56:41.999Z,0
2017-05-23T02:57:43.369Z,0
2017-05-23T02:58:44.740Z,0
2017-05-23T02:59:46.106Z,0
2017-05-23T03:00:47.464Z,0
2017-05-23T03:01:49.313Z,0
2017-05-23T03:02:50.688Z,0
2017-05-23T03:03:52.062Z,0
2017-05-23T03:04:53.429Z,0
2017-05-23T03:05:54.817Z,0
2017-05-23T03:06:56.188Z,0
2017-05-23T03:07:57.550Z,5
2017-05-23T03:08:58.914Z,5
2017-05-23T03:10:00.285Z,5
2017-05-23T03:11:01.658Z,5
2017-05-23T03:12:03.024Z,5
2017-05-23T03:13:04.399Z,5
2017-05-23T03:14:05.761Z,5
2017-05-23T03:15:07.153Z,5
2017-05-23T03:16:08.518Z,10
2017-05-23T03:17:09.892Z,10
2017-05-23T03:18:11.262Z,10
2017-05-23T03:19:12.622Z,10
2017-05-23T03:20:14.001Z,10
2017-05-23T03:21:15.369Z,10
2017-05-23T03:22:16.729Z,10
2017-05-23T03:23:18.119Z,15
2017-05-23T03:24:19.487Z,15
2017-05-23T03:25:20.868Z,15
2017-05-23T03:26:22.249Z,15
2017-05-23T03:27:23.626Z,15
2017-05-23T03:28:24.990Z,20
2017-05-23T03:29:26.362Z,20
2017-05-23T03:30:27.730Z,20
2017-05-23T03:31:29.112Z,20
2017-05-23T03:32:30.484Z,25
2017-05-23T03:33:31.850Z,25
2017-05-23T03:34:33.248Z,25
2017-05-23T03:35:34.590Z,30
2017-05-23T03:36:35.969Z,30
2017-05-23T03:37:37.341Z,30
2017-05-23T03:38:38.713Z,35
2017-05-23T03:39:40.114Z,35
2017-05-23T03:40:41.497Z,40
2017-05-23T03:41:42.903Z,40
2017-05-23T03:42:44.283Z,40
2017-05-23T03:43:45.650Z,40
2017-05-23T03:44:47.044Z,45
2017-05-23T03:45:48.402Z,45
2017-05-23T03:46:49.791Z,45
2017-05-23T03:47:51.178Z,50
2017-05-23T03:48:52.567Z,50
2017-05-23T03:49:53.931Z,50
2017-05-23T03:50:55.298Z,50
2017-05-23T03:51:56.663Z,50
2017-05-23T03:52:58.042Z,55
2017-05-23T03:53:59.418Z,55
2017-05-23T03:55:00.779Z,55
2017-05-23T03:56:02.157Z,60
2017-05-23T03:57:03.527Z,60
2017-05-23T03:58:04.891Z,60
2017-05-23T03:59:06.267Z,60
2017-05-23T04:00:07.660Z,65
2017-05-23T04:01:09.029Z,65
2017-05-23T04:02:10.403Z,70
2017-05-23T04:03:11.781Z,70
2017-05-23T04:04:13.178Z,70
2017-05-23T04:05:14.561Z,75
2017-05-23T04:06:15.932Z,75
2017-05-23T04:07:17.301Z,80
2017-05-23T04:08:18.667Z,80
2017-05-23T04:09:20.039Z,85
2017-05-23T04:10:21.411Z,85
2017-05-23T04:11:22.786Z,90
2017-05-23T04:12:24.160Z,90
2017-05-23T04:13:25.538Z,90
2017-05-23T04:14:26.922Z,95
2017-05-23T04:15:28.304Z,95
2017-05-23T04:16:29.673Z,100
2017-05-23T04:17:31.045Z,100
2017-05-23T04:18:32.418Z,105
2017-05-23T04:19:33.790Z,105
2017-05-23T04:20:35.169Z,110
2017-05-23T04:21:36.537Z,115
2017-05-23T04:22:37.909Z,115
2017-05-23T04:23:39.285Z,120
2017-05-23T04:24:40.659Z,120
2017-05-23T04:25:42.027Z,120
2017-05-23T04:26:43.396Z,120
2017-05-23T04:27:44.770Z,125
2017-05-23T04:28:46.143Z,125
2017-05-23T04:29:47.507Z,125
2017-05-23T04:30:48.890Z,125
2017-05-23T04:31:50.952Z,125
2017-05-23T04:32:52.323Z,120
2017-05-23T04:33:53.697Z,120
2017-05-23T04:34:55.066Z,120
2017-05-23T04:35:56.440Z,125
2017-05-23T04:36:57.812Z,125
2017-05-23T04:37:59.254Z,125
2017-05-23T04:39:00.621Z,125
2017-05-23T04:40:01.996Z,130
2017-05-23T04:41:03.362Z,130
2017-05-23T04:42:04.741Z,135
2017-05-23T04:43:06.166Z,135
2017-05-23T04:44:07.478Z,135
2017-05-23T04:45:08.848Z,140
2017-05-23T04:46:10.230Z,140
2017-05-23T04:47:11.594Z,140
2017-05-23T04:48:13.699Z,145
2017-05-23T04:49:15.084Z,150
2017-05-23T04:50:16.447Z,150
2017-05-23T04:51:17.821Z,155
2017-05-23T04:52:19.190Z,160
2017-05-23T04:53:20.587Z,160
2017-05-23T04:54:21.962Z,165
2017-05-23T04:55:23.328Z,165
2017-05-23T04:56:24.700Z,165
2017-05-23T04:57:26.063Z,165
2017-05-23T04:58:27.436Z,165
2017-05-23T04:59:28.802Z,165
2017-05-23T05:00:30.178Z,170
2017-05-23T05:01:31.542Z,170
2017-05-23T05:02:32.908Z,175
2017-05-23T05:03:34.280Z,175
2017-05-23T05:04:36.262Z,175
2017-05-23T05:05:36.980Z,170
2017-05-23T05:06:38.349Z,175
2017-05-23T05:07:39.717Z,175
2017-05-23T05:08:41.096Z,170
2017-05-23T05:09:42.462Z,170
2017-05-23T05:10:43.835Z,170
2017-05-23T05:11:45.201Z,175
2017-05-23T05:12:46.574Z,175
2017-05-23T05:13:47.946Z,175
2017-05-23T05:14:49.317Z,175
2017-05-23T05:15:50.684Z,180
2017-05-23T05:16:52.050Z,180
2017-05-23T05:17:53.423Z,180
2017-05-23T05:18:54.789Z,180
2017-05-23T05:19:56.167Z,185
2017-05-23T05:20:57.551Z,185
2017-05-23T05:21:58.931Z,190
2017-05-23T05:23:00.297Z,190
2017-05-23T05:24:01.660Z,195
2017-05-23T05:25:03.029Z,195
2017-05-23T05:26:04.406Z,195
2017-05-23T05:27:05.778Z,200
2017-05-23T05:28:07.154Z,200
2017-05-23T05:29:08.527Z,200
2017-05-23T05:30:09.922Z,200
2017-05-23T05:31:11.290Z,200
2017-05-23T05:32:12.673Z,200
2017-05-23T05:33:14.045Z,200
2017-05-23T05:34:15.422Z,200
2017-05-23T05:35:16.785Z,200
2017-05-23T05:36:18.165Z,205
2017-05-23T05:37:19.562Z,210
2017-05-23T05:38:20.932Z,210
2017-05-23T05:39:22.882Z,215
2017-05-23T05:40:24.248Z,220
2017-05-23T05:41:25.622Z,220
2017-05-23T05:42:26.997Z,225
2017-05-23T05:43:28.381Z,225
2017-05-23T05:44:29.762Z,225
2017-05-23T05:45:31.127Z,225
2017-05-23T05:46:32.493Z,230
2017-05-23T05:47:33.859Z,230
2017-05-23T05:48:35.248Z,230
2017-05-23T05:49:36.617Z,230
2017-05-23T05:50:38.028Z,230
2017-05-23T05:51:39.389Z,230
2017-05-23T05:52:40.760Z,230
2017-05-23T05:53:42.127Z,225
2017-05-23T05:54:43.505Z,225
2017-05-23T05:55:44.878Z,220
2017-05-23T05:56:46.251Z,215
2017-05-23T05:57:47.623Z,215
2017-05-23T05:58:48.991Z,215
2017-05-23T05:59:50.362Z,215
2017-05-23T06:00:51.729Z,215
2017-05-23T06:01:53.099Z,215
2017-05-23T06:02:54.479Z,220
2017-05-23T06:03:55.853Z,230
2017-05-23T06:04:57.218Z,235
2017-05-23T06:05:58.597Z,240
2017-05-23T06:06:59.966Z,245
2017-05-23T06:08:01.359Z,260
2017-05-23T06:09:02.730Z,265
2017-05-23T06:10:04.101Z,275
2017-05-23T06:11:05.490Z,285
2017-05-23T06:12:06.858Z,285
2017-05-23T06:13:08.231Z,295
2017-05-23T06:14:09.599Z,305
2017-05-23T06:15:10.969Z,310
2017-05-23T06:16:12.393Z,320
2017-05-23T06:17:13.764Z,325
2017-05-23T06:18:15.142Z,325
2017-05-23T06:19:16.513Z,330
2017-05-23T06:20:17.915Z,320
2017-05-23T06:21:20.239Z,315
2017-05-23T06:22:21.664Z,305
2017-05-23T06:23:23.075Z,305
2017-05-23T06:24:24.449Z,300
2017-05-23T06:25:25.823Z,300
2017-05-23T06:26:27.205Z,300
2017-05-23T06:27:28.577Z,305
2017-05-23T06:28:29.958Z,305
2017-05-23T06:29:31.337Z,310
2017-05-23T06:30:32.704Z,320
2017-05-23T06:31:34.079Z,320
2017-05-23T06:32:35.459Z,325
2017-05-23T06:33:36.829Z,325
2017-05-23T06:34:38.260Z,325
2017-05-23T06:35:39.630Z,320
2017-05-23T06:36:41.005Z,320
2017-05-23T06:37:42.402Z,320
2017-05-23T06:38:43.772Z,310
2017-05-23T06:39:45.160Z,300
2017-05-23T06:40:46.529Z,295
2017-05-23T06:41:47.899Z,295
2017-05-23T06:42:49.289Z,295
2017-05-23T06:43:50.661Z,295
2017-05-23T06:44:52.027Z,295
2017-05-23T06:45:53.403Z,300
2017-05-23T06:46:54.776Z,295
2017-05-23T06:47:56.145Z,290
2017-05-23T06:48:57.513Z,290
2017-05-23T06:49:58.907Z,285
2017-05-23T06:51:00.276Z,285
2017-05-23T06:52:01.651Z,285
2017-05-23T06:53:03.058Z,290
2017-05-23T06:54:04.444Z,290
2017-05-23T06:55:05.823Z,290
2017-05-23T06:56:07.219Z,290
2017-05-23T06:57:08.590Z,290
2017-05-23T06:58:09.995Z,290
2017-05-23T06:59:11.380Z,290
2017-05-23T07:00:12.772Z,295
2017-05-23T07:01:14.138Z,295
2017-05-23T07:02:15.588Z,300
2017-05-23T07:03:16.957Z,300
2017-05-23T07:04:18.329Z,300
2017-05-23T07:05:19.701Z,300
2017-05-23T07:06:21.078Z,300
2017-05-23T07:07:22.447Z,300
2017-05-23T07:08:23.844Z,305
2017-05-23T07:09:25.223Z,310
2017-05-23T07:10:26.588Z,315
2017-05-23T07:11:27.967Z,320
2017-05-23T07:12:29.343Z,325
2017-05-23T07:13:30.707Z,335
2017-05-23T07:14:32.125Z,340
2017-05-23T07:15:33.480Z,340
2017-05-23T07:16:34.853Z,340
2017-05-23T07:17:36.227Z,340
2017-05-23T07:18:37.602Z,340
2017-05-23T07:19:38.982Z,350
2017-05-23T07:20:40.347Z,345
2017-05-23T07:21:41.734Z,350
2017-05-23T07:22:43.102Z,350
2017-05-23T07:23:44.530Z,345
2017-05-23T07:24:45.898Z,340
2017-05-23T07:25:47.279Z,345
2017-05-23T07:26:48.661Z,335
2017-05-23T07:27:50.026Z,335
2017-05-23T07:28:51.406Z,335
2017-05-23T07:29:52.784Z,340
2017-05-23T07:30:54.170Z,345
2017-05-23T07:31:55.556Z,355
2017-05-23T07:32:56.927Z,350
2017-05-23T07:33:58.297Z,355
2017-05-23T07:34:59.670Z,360
2017-05-23T07:36:01.048Z,365
2017-05-23T07:37:03.258Z,365
2017-05-23T07:38:04.643Z,370
2017-05-23T07:39:06.008Z,375
2017-05-23T07:40:07.391Z,380
2017-05-23T07:41:08.773Z,385
2017-05-23T07:42:10.139Z,390
2017-05-23T07:43:11.549Z,395
2017-05-23T07:44:12.936Z,405
2017-05-23T07:45:14.315Z,420
2017-05-23T07:46:15.714Z,420
2017-05-23T07:47:17.102Z,410
2017-05-23T07:48:18.538Z,405
2017-05-23T07:49:19.857Z,405
2017-05-23T07:50:21.243Z,405
2017-05-23T07:51:22.613Z,400
2017-05-23T07:52:23.988Z,400
2017-05-23T07:53:25.363Z,395
2017-05-23T07:54:26.730Z,395
2017-05-23T07:55:28.109Z,390
2017-05-23T07:56:29.482Z,390
2017-05-23T07:57:30.851Z,390
2017-05-23T07:58:32.229Z,385
2017-05-23T07:59:33.603Z,380
2017-05-23T08:00:34.988Z,375
2017-05-23T08:01:36.368Z,370
2017-05-23T08:02:37.740Z,365
2017-05-23T08:03:39.117Z,355
2017-05-23T08:04:40.518Z,345
2017-05-23T08:05:41.891Z,340
2017-05-23T08:06:43.270Z,335
2017-05-23T08:07:44.671Z,330
2017-05-23T08:08:46.046Z,330
2017-05-23T08:09:47.429Z,330
2017-05-23T08:10:48.800Z,330
2017-05-23T08:11:50.183Z,335
2017-05-23T08:12:51.556Z,340
2017-05-23T08:13:52.949Z,340
2017-05-23T08:14:54.330Z,340
2017-05-23T08:15:55.762Z,345
2017-05-23T08:16:57.023Z,345
2017-05-23T08:17:58.415Z,350
2017-05-23T08:18:59.783Z,350
2017-05-23T08:20:01.154Z,350
2017-05-23T08:21:02.534Z,355
2017-05-23T08:22:03.899Z,355
2017-05-23T08:23:05.287Z,360
2017-05-23T08:24:06.678Z,360
2017-05-23T08:25:08.051Z,360
2017-05-23T08:26:09.426Z,355
2017-05-23T08:27:10.799Z,355
2017-05-23T08:28:12.171Z,345
2017-05-23T08:29:13.549Z,340
2017-05-23T08:30:14.965Z,335
2017-05-23T08:31:16.332Z,335
2017-05-23T08:32:17.703Z,335
2017-05-23T08:33:19.076Z,335
2017-05-23T08:34:20.446Z,340
2017-05-23T08:35:21.818Z,340
2017-05-23T08:36:23.194Z,345
2017-05-23T08:37:24.561Z,345
2017-05-23T08:38:25.990Z,350
2017-05-23T08:39:27.406Z,350
2017-05-23T08:40:28.750Z,355
2017-05-23T08:41:30.129Z,350
2017-05-23T08:42:31.502Z,350
2017-05-23T08:43:32.874Z,350
2017-05-23T08:44:34.239Z,345
2017-05-23T08:45:35.618Z,345
2017-05-23T08:46:37.010Z,345
2017-05-23T08:47:38.381Z,345
2017-05-23T08:48:39.749Z,350
2017-05-23T08:49:41.130Z,350
2017-05-23T08:50:42.505Z,355
2017-05-23T08:51:43.893Z,360
2017-05-23T08:52:45.269Z,365
2017-05-23T08:53:46.706Z,370
2017-05-23T08:54:48.094Z,370
2017-05-23T08:55:49.485Z,375
2017-05-23T08:56:50.863Z,375
2017-05-23T08:57:52.232Z,380
2017-05-23T08:58:53.604Z,380
2017-05-23T08:59:54.978Z,380
2017-05-23T09:00:56.351Z,385
2017-05-23T09:01:57.719Z,390
2017-05-23T09:02:59.087Z,400
2017-05-23T09:04:00.470Z,405
2017-05-23T09:05:01.842Z,410
2017-05-23T09:06:03.214Z,410
2017-05-23T09:07:04.588Z,410
2017-05-23T09:08:05.958Z,415
2017-05-23T09:09:07.358Z,420
2017-05-23T09:10:08.771Z,425
2017-05-23T09:11:10.147Z,425
2017-05-23T09:12:11.530Z,430
2017-05-23T09:13:12.985Z,430
2017-05-23T09:14:14.363Z,435
2017-05-23T09:15:15.751Z,430
2017-05-23T09:16:17.120Z,430
2017-05-23T09:17:18.494Z,430
2017-05-23T09:18:19.892Z,430
2017-05-23T09:19:21.287Z,435
2017-05-23T09:20:22.670Z,430
2017-05-23T09:21:24.066Z,435
2017-05-23T09:22:25.441Z,440
2017-05-23T09:23:26.810Z,440
2017-05-23T09:24:28.190Z,440
2017-05-23T09:25:29.563Z,440
2017-05-23T09:26:31.002Z,440
2017-05-23T09:27:32.380Z,440
2017-05-23T09:28:33.760Z,445
2017-05-23T09:29:35.132Z,450
2017-05-23T09:30:36.510Z,450
2017-05-23T09:31:37.883Z,450
2017-05-23T09:32:39.252Z,450
2017-05-23T09:33:40.626Z,450
2017-05-23T09:34:42.000Z,445
2017-05-23T09:35:43.379Z,440
2017-05-23T09:36:44.751Z,440
2017-05-23T09:37:46.164Z,445
2017-05-23T09:38:47.570Z,445
2017-05-23T09:39:48.965Z,450
2017-05-23T09:40:50.336Z,455
2017-05-23T09:41:51.731Z,460
2017-05-23T09:42:53.105Z,460
2017-05-23T09:43:54.474Z,460
2017-05-23T09:44:55.858Z,465
2017-05-23T09:45:57.231Z,465
2017-05-23T09:46:58.625Z,470
2017-05-23T09:47:59.999Z,480
2017-05-23T09:49:01.375Z,485
2017-05-23T09:50:02.749Z,490
2017-05-23T09:51:04.123Z,495
2017-05-23T09:52:05.524Z,495
2017-05-23T09:53:06.919Z,495
2017-05-23T09:54:08.294Z,490
2017-05-23T09:55:09.693Z,480
2017-05-23T09:56:11.088Z,475
2017-05-23T09:57:12.536Z,470
2017-05-23T09:58:13.933Z,465
2017-05-23T09:59:15.306Z,470
2017-05-23T10:00:16.695Z,460
2017-05-23T10:01:18.074Z,465
2017-05-23T10:02:19.448Z,470
2017-05-23T10:03:20.861Z,485
2017-05-23T10:04:22.247Z,485
2017-05-23T10:05:23.634Z,460
2017-05-23T10:06:25.016Z,430
2017-05-23T10:07:26.396Z,425
2017-05-23T10:08:27.776Z,420
2017-05-23T10:09:29.141Z,420
2017-05-23T10:10:30.520Z,385
2017-05-23T10:11:31.899Z,370
2017-05-23T10:12:33.283Z,355
2017-05-23T10:13:34.666Z,340
2017-05-23T10:14:36.140Z,335
2017-05-23T10:15:37.520Z,330
2017-05-23T10:16:38.890Z,325
2017-05-23T10:17:40.259Z,325
2017-05-23T10:18:41.636Z,320
2017-05-23T10:19:43.061Z,315
2017-05-23T10:20:44.434Z,315
2017-05-23T10:21:45.817Z,310
2017-05-23T10:22:47.190Z,305
2017-05-23T10:23:48.565Z,300
2017-05-23T10:24:49.944Z,300
2017-05-23T10:25:51.347Z,300
2017-05-23T10:26:52.729Z,305
2017-05-23T10:27:54.099Z,305
2017-05-23T10:28:55.473Z,300
2017-05-23T10:29:56.847Z,300
2017-05-23T10:30:58.220Z,290
2017-05-23T10:31:59.589Z,280
2017-05-23T10:33:00.964Z,270
2017-05-23T10:34:02.337Z,260
2017-05-23T10:35:03.711Z,255
2017-05-23T10:36:05.108Z,265
2017-05-23T10:37:06.512Z,270
2017-05-23T10:38:07.884Z,280
2017-05-23T10:39:09.260Z,280
2017-05-23T10:40:10.642Z,275
2017-05-23T10:41:12.016Z,275
2017-05-23T10:42:13.396Z,270
2017-05-23T10:43:14.777Z,270
2017-05-23T10:44:16.151Z,265
2017-05-23T10:45:17.536Z,260
2017-05-23T10:46:18.901Z,260
2017-05-23T10:47:20.286Z,260
2017-05-23T10:48:21.658Z,255
2017-05-23T10:49:23.039Z,255
2017-05-23T10:50:24.421Z,255
2017-05-23T10:51:25.796Z,255
2017-05-23T10:52:27.168Z,255
2017-05-23T10:53:28.555Z,250
2017-05-23T10:54:29.927Z,250
2017-05-23T10:55:31.311Z,250
2017-05-23T10:56:32.679Z,255
2017-05-23T10:57:34.050Z,255
2017-05-23T10:58:35.427Z,255
2017-05-23T10:59:36.835Z,255
2017-05-23T11:00:38.270Z,255
2017-05-23T11:01:39.644Z,255
2017-05-23T11:02:41.090Z,260
2017-05-23T11:03:42.532Z,260
2017-05-23T11:04:43.958Z,255
2017-05-23T11:05:45.339Z,255
2017-05-23T11:06:46.709Z,250
2017-05-23T11:07:48.087Z,250
2017-05-23T11:08:49.498Z,250
2017-05-23T11:09:50.867Z,245
2017-05-23T11:10:52.244Z,245
2017-05-23T11:11:53.629Z,245
2017-05-23T11:12:55.008Z,245
2017-05-23T11:13:56.381Z,245
2017-05-23T11:14:57.751Z,250
2017-05-23T11:15:59.130Z,245
2017-05-23T11:17:00.513Z,245
2017-05-23T11:18:01.891Z,245
2017-05-23T11:19:03.277Z,245
2017-05-23T11:20:04.649Z,245
2017-05-23T11:21:06.027Z,245
2017-05-23T11:22:07.397Z,245
2017-05-23T11:23:08.765Z,245
2017-05-23T11:24:10.149Z,245
2017-05-23T11:25:11.528Z,245
2017-05-23T11:26:12.903Z,245
2017-05-23T11:27:14.273Z,245
2017-05-23T11:28:15.641Z,245
2017-05-23T11:29:17.034Z,245
2017-05-23T11:30:18.394Z,245
2017-05-23T11:31:19.773Z,245
2017-05-23T11:32:21.139Z,245
2017-05-23T11:33:22.513Z,245
2017-05-23T11:34:23.889Z,245
2017-05-23T11:35:25.271Z,245
2017-05-23T11:36:26.644Z,245
2017-05-23T11:37:28.081Z,250
2017-05-23T11:38:29.466Z,255
2017-05-23T11:39:30.843Z,250
2017-05-23T11:40:32.235Z,255
2017-05-23T11:41:33.612Z,255
2017-05-23T11:42:34.979Z,250
2017-05-23T11:43:36.350Z,250
2017-05-23T11:44:37.721Z,245
2017-05-23T11:45:39.121Z,245
2017-05-23T11:46:40.483Z,245
2017-05-23T11:47:41.914Z,245
2017-05-23T11:48:43.238Z,245
2017-05-23T11:49:44.611Z,245
2017-05-23T11:50:46.053Z,250
2017-05-23T11:51:47.469Z,250
2017-05-23T11:52:48.944Z,255
2017-05-23T11:53:50.349Z,260
2017-05-23T11:54:51.764Z,260
2017-05-23T11:55:53.215Z,260
2017-05-23T11:56:54.635Z,260
2017-05-23T11:57:56.063Z,260
2017-05-23T11:58:57.438Z,260
2017-05-23T11:59:58.833Z,265
2017-05-23T12:01:00.257Z,275
2017-05-23T12:02:01.684Z,280
2017-05-23T12:03:03.080Z,295
2017-05-23T12:04:04.459Z,305
2017-05-23T12:05:05.877Z,320
2017-05-23T12:06:07.281Z,320
2017-05-23T12:07:08.659Z,310
2017-05-23T12:08:10.072Z,300
2017-05-23T12:09:11.479Z,285
2017-05-23T12:10:12.882Z,285
2017-05-23T12:11:14.275Z,285
2017-05-23T12:12:15.666Z,295
2017-05-23T12:13:17.074Z,290
2017-05-23T12:14:18.445Z,295
2017-05-23T12:15:19.830Z,295
2017-05-23T12:16:21.224Z,290
2017-05-23T12:17:22.671Z,285
2017-05-23T12:18:24.047Z,280
2017-05-23T12:19:25.430Z,280
2017-05-23T12:20:26.837Z,280
2017-05-23T12:21:28.212Z,295
2017-05-23T12:22:29.595Z,305
2017-05-23T12:23:31.015Z,305
2017-05-23T12:24:32.389Z,315
2017-05-23T12:25:33.763Z,305
2017-05-23T12:26:35.135Z,300
2017-05-23T12:27:36.514Z,330
2017-05-23T12:28:37.893Z,335
2017-05-23T12:29:39.275Z,335
2017-05-23T12:30:40.650Z,315
2017-05-23T12:31:42.021Z,285
2017-05-23T12:32:43.397Z,270
2017-05-23T12:33:44.772Z,265
2017-05-23T12:34:46.148Z,265
2017-05-23T12:35:47.516Z,275
2017-05-23T12:36:48.892Z,285
2017-05-23T12:37:50.273Z,295
2017-05-23T12:38:51.718Z,340
2017-05-23T12:39:53.092Z,350
2017-05-23T12:40:54.462Z,335
2017-05-23T12:41:55.841Z,370
2017-05-23T12:42:57.217Z,385
2017-05-23T12:43:58.589Z,375
2017-05-23T12:44:59.971Z,380
2017-05-23T12:46:01.338Z,385
2017-05-23T12:47:02.726Z,395
2017-05-23T12:48:04.098Z,365
2017-05-23T12:49:05.474Z,440
2017-05-23T12:50:06.850Z,435
2017-05-23T12:51:08.270Z,400
2017-05-23T12:52:09.643Z,415
2017-05-23T12:53:11.024Z,445
2017-05-23T12:54:12.397Z,430
2017-05-23T12:55:13.790Z,415
2017-05-23T12:56:15.161Z,425
2017-05-23T12:57:16.586Z,425
2017-05-23T12:58:17.960Z,420
2017-05-23T12:59:19.341Z,420
2017-05-23T13:00:20.710Z,345
2017-05-23T13:01:22.117Z,360
2017-05-23T13:02:23.495Z,400
2017-05-23T13:03:24.878Z,345
2017-05-23T13:04:26.245Z,370
2017-05-23T13:05:27.624Z,390
2017-05-23T13:06:29.003Z,410
2017-05-23T13:07:30.377Z,410
2017-05-23T13:08:31.755Z,375
2017-05-23T13:09:33.126Z,360
2017-05-23T13:10:34.498Z,350
2017-05-23T13:11:35.895Z,365
2017-05-23T13:12:37.281Z,400
2017-05-23T13:13:38.672Z,420
2017-05-23T13:14:40.045Z,425
2017-05-23T13:15:41.413Z,445
2017-05-23T13:16:42.790Z,475
2017-05-23T13:17:44.174Z,475
2017-05-23T13:18:45.549Z,475
2017-05-23T13:19:46.920Z,470
2017-05-23T13:20:48.293Z,470
2017-05-23T13:21:49.671Z,455
2017-05-23T13:22:51.049Z,450
2017-05-23T13:23:52.429Z,450
2017-05-23T13:24:53.799Z,445
2017-05-23T13:25:55.175Z,445
2017-05-23T13:26:56.622Z,435
2017-05-23T13:27:58.010Z,395
2017-05-23T13:28:59.386Z,395
2017-05-23T13:30:00.779Z,400
2017-05-23T13:31:02.147Z,400
2017-05-23T13:32:03.527Z,415
2017-05-23T13:33:04.960Z,420
2017-05-23T13:34:06.380Z,425
2017-05-23T13:35:07.761Z,410
2017-05-23T13:36:09.141Z,420
2017-05-23T13:37:10.521Z,420
2017-05-23T13:38:11.900Z,425
2017-05-23T13:39:13.278Z,430
2017-05-23T13:40:14.647Z,430
2017-05-23T13:41:16.073Z,430
2017-05-23T13:42:17.450Z,430
2017-05-23T13:43:18.832Z,425
2017-05-23T13:44:20.208Z,420
2017-05-23T13:45:21.596Z,415
2017-05-23T13:46:22.995Z,415
2017-05-23T13:47:24.381Z,410
2017-05-23T13:48:25.740Z,410
2017-05-23T13:49:27.114Z,405
2017-05-23T13:50:28.496Z,405
2017-05-23T13:51:29.867Z,405
2017-05-23T13:52:31.239Z,405
2017-05-23T13:53:32.635Z,405
2017-05-23T13:54:34.009Z,405
2017-05-23T13:55:35.392Z,410
2017-05-23T13:56:36.856Z,405
2017-05-23T13:57:38.237Z,410
2017-05-23T13:58:39.612Z,410
2017-05-23T13:59:41.045Z,415
2017-05-23T14:00:42.408Z,415
2017-05-23T14:01:43.789Z,415
2017-05-23T14:02:45.167Z,420
2017-05-23T14:03:46.541Z,420
2017-05-23T14:04:47.940Z,425
2017-05-23T14:05:49.314Z,425
2017-05-23T14:06:50.699Z,430
2017-05-23T14:07:52.073Z,435
2017-05-23T14:08:53.461Z,435
2017-05-23T14:09:54.845Z,430
2017-05-23T14:10:56.214Z,435
2017-05-23T14:11:57.590Z,430
2017-05-23T14:12:58.966Z,425
2017-05-23T14:14:00.342Z,420
2017-05-23T14:15:01.797Z,405
2017-05-23T14:16:04.210Z,400
2017-05-23T14:17:05.595Z,385
2017-05-23T14:18:06.978Z,385
2017-05-23T14:19:08.355Z,370
2017-05-23T14:20:09.737Z,365
2017-05-23T14:21:11.110Z,355